sensor_id;sensor_type;location;lat;lon;timestamp;pressure;altitude;pressure_sealevel;temperature;humidity
74065;BME280;62421;51.412;5.432;2023-09-19T00:01:31;100692.81;;;13.71;100.00
74065;BME280;62421;51.412;5.432;2023-09-19T00:03:57;100706.06;;;13.75;100.00
74065;BME280;62421;51.412;5.432;2023-09-19T00:06:23;100704.06;;;13.77;100.00
74065;BME280;62421;51.412;5.432;2023-09-19T00:08:51;100710.72;;;13.72;100.00
74065;BME280;62421;51.412;5.432;2023-09-19T00:11:17;100704.72;;;13.69;100.00
74065;BME280;62421;51.412;5.432;2023-09-19T00:13:42;100709.50;;;13.65;100.00
74065;BME280;62421;51.412;5.432;2023-09-19T00:16:10;100708.94;;;13.62;100.00
74065;BME280;62421;51.412;5.432;2023-09-19T00:18:36;100718.00;;;13.61;100.00
74065;BME280;62421;51.412;5.432;2023-09-19T00:21:03;100715.69;;;13.56;100.00
74065;BME280;62421;51.412;5.432;2023-09-19T00:23:30;100716.22;;;13.50;100.00
74065;BME280;62421;51.412;5.432;2023-09-19T00:26:00;100724.69;;;13.45;100.00
74065;BME280;62421;51.412;5.432;2023-09-19T00:28:26;100718.56;;;13.43;100.00
74065;BME280;62421;51.412;5.432;2023-09-19T00:30:51;100713.19;;;13.43;100.00
74065;BME280;62421;51.412;5.432;2023-09-19T00:33:17;100721.66;;;13.39;100.00
74065;BME280;62421;51.412;5.432;2023-09-19T00:36:02;100731.84;;;13.35;100.00
74065;BME280;62421;51.412;5.432;2023-09-19T00:38:30;100737.50;;;13.32;100.00
74065;BME280;62421;51.412;5.432;2023-09-19T00:40:57;100738.72;;;13.28;100.00
74065;BME280;62421;51.412;5.432;2023-09-19T00:43:22;100740.44;;;13.29;100.00
74065;BME280;62421;51.412;5.432;2023-09-19T00:45:50;100741.53;;;13.26;100.00
74065;BME280;62421;51.412;5.432;2023-09-19T00:48:16;100745.84;;;13.29;100.00
74065;BME280;62421;51.412;5.432;2023-09-19T00:50:43;100744.00;;;13.29;100.00
74065;BME280;62421;51.412;5.432;2023-09-19T00:53:09;100745.94;;;13.27;100.00
74065;BME280;62421;51.412;5.432;2023-09-19T00:55:38;100747.91;;;13.25;100.00
74065;BME280;62421;51.412;5.432;2023-09-19T00:58:04;100752.44;;;13.25;100.00
74065;BME280;62421;51.412;5.432;2023-09-19T01:00:32;100756.97;;;13.24;100.00
74065;BME280;62421;51.412;5.432;2023-09-19T01:02:59;100760.66;;;13.23;100.00
74065;BME280;62421;51.412;5.432;2023-09-19T01:05:26;100770.34;;;13.26;100.00
74065;BME280;62421;51.412;5.432;2023-09-19T01:07:51;100776.84;;;13.23;100.00
74065;BME280;62421;51.412;5.432;2023-09-19T01:10:19;100775.38;;;13.19;100.00
74065;BME280;62421;51.412;5.432;2023-09-19T01:20:38;100773.06;;;13.15;100.00
74065;BME280;62421;51.412;5.432;2023-09-19T01:23:18;100781.38;;;13.11;100.00
74065;BME280;62421;51.412;5.432;2023-09-19T01:28:31;100784.84;;;13.02;100.00
74065;BME280;62421;51.412;5.432;2023-09-19T01:31:02;100775.28;;;12.98;100.00
74065;BME280;62421;51.412;5.432;2023-09-19T01:33:29;100779.84;;;12.98;100.00
74065;BME280;62421;51.412;5.432;2023-09-19T01:36:16;100791.56;;;12.97;100.00
74065;BME280;62421;51.412;5.432;2023-09-19T01:38:41;100791.56;;;12.97;100.00
74065;BME280;62421;51.412;5.432;2023-09-19T01:41:11;100791.56;;;12.97;100.00
74065;BME280;62421;51.412;5.432;2023-09-19T01:43:47;100796.84;;;12.98;100.00
74065;BME280;62421;51.412;5.432;2023-09-19T01:46:30;100791.19;;;13.01;100.00
74065;BME280;62421;51.412;5.432;2023-09-19T01:51:39;100796.84;;;12.98;100.00
74065;BME280;62421;51.412;5.432;2023-09-19T01:54:12;100797.47;;;13.02;100.00
74065;BME280;62421;51.412;5.432;2023-09-19T01:56:50;100794.88;;;13.00;100.00
74065;BME280;62421;51.412;5.432;2023-09-19T01:59:23;100802.25;;;12.98;100.00
74065;BME280;62421;51.412;5.432;2023-09-19T02:01:52;100796.97;;;12.97;100.00
74065;BME280;62421;51.412;5.432;2023-09-19T02:04:18;100794.53;;;12.94;100.00
74065;BME280;62421;51.412;5.432;2023-09-19T02:06:43;100800.88;;;12.93;100.00
74065;BME280;62421;51.412;5.432;2023-09-19T02:09:13;100800.16;;;12.90;100.00
74065;BME280;62421;51.412;5.432;2023-09-19T02:11:39;100790.38;;;12.89;100.00
74065;BME280;62421;51.412;5.432;2023-09-19T02:14:04;100790.63;;;12.86;100.00
74065;BME280;62421;51.412;5.432;2023-09-19T02:16:34;100797.84;;;12.86;100.00
74065;BME280;62421;51.412;5.432;2023-09-19T02:18:59;100794.53;;;12.82;100.00
74065;BME280;62421;51.412;5.432;2023-09-19T02:21:25;100792.94;;;12.80;100.00
74065;BME280;62421;51.412;5.432;2023-09-19T02:23:50;100785.09;;;12.77;100.00
74065;BME280;62421;51.412;5.432;2023-09-19T02:26:16;100787.06;;;12.75;100.00
74065;BME280;62421;51.412;5.432;2023-09-19T02:28:43;100781.94;;;12.72;100.00
74065;BME280;62421;51.412;5.432;2023-09-19T02:31:11;100796.63;;;12.67;100.00
74065;BME280;62421;51.412;5.432;2023-09-19T02:33:36;100800.44;;;12.65;100.00
74065;BME280;62421;51.412;5.432;2023-09-19T02:36:02;100803.25;;;12.63;100.00
74065;BME280;62421;51.412;5.432;2023-09-19T02:38:29;100798.81;;;12.62;100.00
74065;BME280;62421;51.412;5.432;2023-09-19T02:40:55;100804.34;;;12.61;100.00
74065;BME280;62421;51.412;5.432;2023-09-19T02:43:20;100809.97;;;12.58;100.00
74065;BME280;62421;51.412;5.432;2023-09-19T02:45:46;100804.56;;;12.58;100.00
74065;BME280;62421;51.412;5.432;2023-09-19T02:48:12;100801.28;;;12.54;100.00
74065;BME280;62421;51.412;5.432;2023-09-19T02:50:37;100803.25;;;12.52;100.00
74065;BME280;62421;51.412;5.432;2023-09-19T02:53:05;100798.81;;;12.51;100.00
74065;BME280;62421;51.412;5.432;2023-09-19T02:55:31;100803.72;;;12.46;100.00
74065;BME280;62421;51.412;5.432;2023-09-19T02:57:57;100805.66;;;12.44;100.00
74065;BME280;62421;51.412;5.432;2023-09-19T03:00:23;100804.19;;;12.40;100.00
74065;BME280;62421;51.412;5.432;2023-09-19T03:02:55;100810.53;;;12.39;100.00
74065;BME280;62421;51.412;5.432;2023-09-19T03:05:22;100814.22;;;12.38;100.00
74065;BME280;62421;51.412;5.432;2023-09-19T03:07:48;100812.50;;;12.37;100.00
74065;BME280;62421;51.412;5.432;2023-09-19T03:10:16;100813.22;;;12.39;100.00
74065;BME280;62421;51.412;5.432;2023-09-19T03:12:41;100817.53;;;12.41;100.00
74065;BME280;62421;51.412;5.432;2023-09-19T03:15:07;100811.06;;;12.44;100.00
74065;BME280;62421;51.412;5.432;2023-09-19T03:17:34;100810.44;;;12.40;100.00
74065;BME280;62421;51.412;5.432;2023-09-19T03:19:59;100809.59;;;12.40;100.00
74065;BME280;62421;51.412;5.432;2023-09-19T03:22:26;100812.38;;;12.38;100.00
74065;BME280;62421;51.412;5.432;2023-09-19T03:24:52;100811.53;;;12.38;100.00
74065;BME280;62421;51.412;5.432;2023-09-19T03:27:18;100804.66;;;12.34;100.00
74065;BME280;62421;51.412;5.432;2023-09-19T03:29:43;100816.66;;;12.29;100.00
74065;BME280;62421;51.412;5.432;2023-09-19T03:32:09;100820.19;;;12.30;100.00
74065;BME280;62421;51.412;5.432;2023-09-19T03:34:38;100822.41;;;12.25;100.00
74065;BME280;62421;51.412;5.432;2023-09-19T03:37:08;100825.19;;;12.23;100.00
74065;BME280;62421;51.412;5.432;2023-09-19T03:39:34;100817.50;;;12.19;100.00
74065;BME280;62421;51.412;5.432;2023-09-19T03:41:59;100816.84;;;12.15;100.00
74065;BME280;62421;51.412;5.432;2023-09-19T03:44:24;100817.94;;;12.13;100.00
74065;BME280;62421;51.412;5.432;2023-09-19T03:46:50;100819.91;;;12.11;100.00
74065;BME280;62421;51.412;5.432;2023-09-19T03:49:15;100813.78;;;12.08;100.00
74065;BME280;62421;51.412;5.432;2023-09-19T03:51:40;100810.97;;;12.10;100.00
74065;BME280;62421;51.412;5.432;2023-09-19T03:54:07;100810.75;;;12.13;100.00
74065;BME280;62421;51.412;5.432;2023-09-19T03:56:32;100802.69;;;12.13;100.00
74065;BME280;62421;51.412;5.432;2023-09-19T03:58:58;100810.75;;;12.13;100.00
74065;BME280;62421;51.412;5.432;2023-09-19T04:01:23;100805.38;;;12.13;100.00
74065;BME280;62421;51.412;5.432;2023-09-19T04:03:49;100806.22;;;12.14;100.00
74065;BME280;62421;51.412;5.432;2023-09-19T04:06:17;100805.97;;;12.17;100.00
74065;BME280;62421;51.412;5.432;2023-09-19T04:08:43;100796.19;;;12.16;100.00
74065;BME280;62421;51.412;5.432;2023-09-19T04:11:09;100812.22;;;12.17;100.00
74065;BME280;62421;51.412;5.432;2023-09-19T04:13:35;100808.56;;;12.18;100.00
74065;BME280;62421;51.412;5.432;2023-09-19T04:16:00;100815.66;;;12.19;100.00
74065;BME280;62421;51.412;5.432;2023-09-19T04:18:26;100808.56;;;12.18;100.00
74065;BME280;62421;51.412;5.432;2023-09-19T04:20:52;100792.41;;;12.18;100.00
74065;BME280;62421;51.412;5.432;2023-09-19T04:23:17;100806.72;;;12.19;100.00
74065;BME280;62421;51.412;5.432;2023-09-19T04:25:45;100803.06;;;12.20;100.00
74065;BME280;62421;51.412;5.432;2023-09-19T04:28:10;100805.63;;;12.21;100.00
74065;BME280;62421;51.412;5.432;2023-09-19T04:30:39;100826.94;;;12.24;100.00
74065;BME280;62421;51.412;5.432;2023-09-19T04:33:08;100828.53;;;12.27;100.00
74065;BME280;62421;51.412;5.432;2023-09-19T04:35:33;100832.91;;;12.28;100.00
74065;BME280;62421;51.412;5.432;2023-09-19T04:37:59;100832.81;;;12.29;100.00
74065;BME280;62421;51.412;5.432;2023-09-19T04:40:24;100835.28;;;12.33;100.00
74065;BME280;62421;51.412;5.432;2023-09-19T04:42:58;100858.16;;;12.38;100.00
74065;BME280;62421;51.412;5.432;2023-09-19T04:45:24;100863.19;;;12.43;100.00
74065;BME280;62421;51.412;5.432;2023-09-19T04:47:49;100864.31;;;12.52;100.00
74065;BME280;62421;51.412;5.432;2023-09-19T04:50:15;100861.28;;;12.56;100.00
74065;BME280;62421;51.412;5.432;2023-09-19T04:52:45;100871.44;;;12.64;100.00
74065;BME280;62421;51.412;5.432;2023-09-19T04:55:14;100866.53;;;12.69;100.00
74065;BME280;62421;51.412;5.432;2023-09-19T04:57:49;100872.44;;;12.74;100.00
74065;BME280;62421;51.412;5.432;2023-09-19T05:00:17;100865.56;;;12.81;100.00
74065;BME280;62421;51.412;5.432;2023-09-19T05:02:43;100873.44;;;12.84;100.00
74065;BME280;62421;51.412;5.432;2023-09-19T05:05:09;100881.38;;;12.86;100.00
74065;BME280;62421;51.412;5.432;2023-09-19T05:07:40;100884.69;;;12.89;100.00
74065;BME280;62421;51.412;5.432;2023-09-19T05:10:06;100883.00;;;12.88;100.00
74065;BME280;62421;51.412;5.432;2023-09-19T05:12:33;100886.75;;;12.86;100.00
74065;BME280;62421;51.412;5.432;2023-09-19T05:14:59;100884.22;;;12.84;100.00
74065;BME280;62421;51.412;5.432;2023-09-19T05:17:25;100880.88;;;12.81;100.00
74065;BME280;62421;51.412;5.432;2023-09-19T05:19:50;100897.31;;;12.78;100.00
74065;BME280;62421;51.412;5.432;2023-09-19T05:22:15;100899.50;;;12.73;100.00
74065;BME280;62421;51.412;5.432;2023-09-19T05:24:41;100899.59;;;12.71;100.00
74065;BME280;62421;51.412;5.432;2023-09-19T05:27:06;100891.66;;;12.69;100.00
74065;BME280;62421;51.412;5.432;2023-09-19T05:29:33;100898.00;;;12.68;100.00
74065;BME280;62421;51.412;5.432;2023-09-19T05:31:58;100899.13;;;12.66;100.00
74065;BME280;62421;51.412;5.432;2023-09-19T05:34:24;100898.38;;;12.64;100.00
74065;BME280;62421;51.412;5.432;2023-09-19T05:36:50;100893.09;;;12.62;100.00
74065;BME280;62421;51.412;5.432;2023-09-19T05:39:17;100894.09;;;12.61;100.00
74065;BME280;62421;51.412;5.432;2023-09-19T05:41:42;100895.78;;;12.62;100.00
74065;BME280;62421;51.412;5.432;2023-09-19T05:44:08;100899.47;;;12.61;100.00
74065;BME280;62421;51.412;5.432;2023-09-19T05:46:33;100894.94;;;12.62;100.00
74065;BME280;62421;51.412;5.432;2023-09-19T05:48:58;100900.31;;;12.62;100.00
74065;BME280;62421;51.412;5.432;2023-09-19T05:51:24;100904.88;;;12.61;100.00
74065;BME280;62421;51.412;5.432;2023-09-19T05:53:50;100897.63;;;12.62;100.00
74065;BME280;62421;51.412;5.432;2023-09-19T05:56:15;100900.09;;;12.65;100.00
74065;BME280;62421;51.412;5.432;2023-09-19T05:58:44;100895.56;;;12.65;100.00
74065;BME280;62421;51.412;5.432;2023-09-19T06:01:09;100899.84;;;12.68;100.00
74065;BME280;62421;51.412;5.432;2023-09-19T06:03:35;100897.06;;;12.69;100.00
74065;BME280;62421;51.412;5.432;2023-09-19T06:06:03;100884.31;;;12.72;100.00
74065;BME280;62421;51.412;5.432;2023-09-19T06:08:31;100893.00;;;12.75;100.00
74065;BME280;62421;51.412;5.432;2023-09-19T06:10:57;100890.94;;;12.79;100.00
74065;BME280;62421;51.412;5.432;2023-09-19T06:13:22;100889.72;;;12.83;100.00
74065;BME280;62421;51.412;5.432;2023-09-19T06:15:48;100901.13;;;12.86;100.00
74065;BME280;62421;51.412;5.432;2023-09-19T06:18:14;100890.94;;;12.90;100.00
74065;BME280;62421;51.412;5.432;2023-09-19T06:20:48;100901.22;;;12.96;100.00
74065;BME280;62421;51.412;5.432;2023-09-19T06:23:16;100907.25;;;13.00;100.00
74065;BME280;62421;51.412;5.432;2023-09-19T06:25:42;100896.22;;;13.03;100.00
74065;BME280;62421;51.412;5.432;2023-09-19T06:28:09;100901.22;;;13.07;100.00
74065;BME280;62421;51.412;5.432;2023-09-19T06:30:38;100901.75;;;13.13;100.00
74065;BME280;62421;51.412;5.432;2023-09-19T06:33:05;100916.69;;;13.17;100.00
74065;BME280;62421;51.412;5.432;2023-09-19T06:35:32;100911.78;;;13.22;100.00
74065;BME280;62421;51.412;5.432;2023-09-19T06:37:58;100920.50;;;13.25;100.00
74065;BME280;62421;51.412;5.432;2023-09-19T06:40:23;100928.25;;;13.30;100.00
74065;BME280;62421;51.412;5.432;2023-09-19T06:42:52;100934.97;;;13.36;100.00
74065;BME280;62421;51.412;5.432;2023-09-19T06:45:19;100931.91;;;13.40;100.00
74065;BME280;62421;51.412;5.432;2023-09-19T06:47:47;100931.53;;;13.45;100.00
74065;BME280;62421;51.412;5.432;2023-09-19T06:50:15;100933.00;;;13.49;100.00
74065;BME280;62421;51.412;5.432;2023-09-19T06:52:44;100936.66;;;13.59;100.00
74065;BME280;62421;51.412;5.432;2023-09-19T06:55:11;100916.16;;;13.68;100.00
74065;BME280;62421;51.412;5.432;2023-09-19T06:57:38;100927.91;;;13.78;100.00
74065;BME280;62421;51.412;5.432;2023-09-19T07:00:06;100932.69;;;13.86;100.00
74065;BME280;62421;51.412;5.432;2023-09-19T07:02:41;100931.47;;;13.90;100.00
74065;BME280;62421;51.412;5.432;2023-09-19T07:05:07;100941.03;;;13.94;100.00
74065;BME280;62421;51.412;5.432;2023-09-19T07:07:32;100932.66;;;13.97;100.00
74065;BME280;62421;51.412;5.432;2023-09-19T07:10:00;100931.81;;;13.97;100.00
74065;BME280;62421;51.412;5.432;2023-09-19T07:12:26;100934.84;;;14.03;100.00
74065;BME280;62421;51.412;5.432;2023-09-19T07:14:51;100925.63;;;14.06;100.00
74065;BME280;62421;51.412;5.432;2023-09-19T07:17:16;100924.41;;;14.10;100.00
74065;BME280;62421;51.412;5.432;2023-09-19T07:19:44;100939.81;;;14.19;100.00
74065;BME280;62421;51.412;5.432;2023-09-19T07:22:10;100930.81;;;14.30;100.00
74065;BME280;62421;51.412;5.432;2023-09-19T07:24:36;100929.44;;;14.36;100.00
74065;BME280;62421;51.412;5.432;2023-09-19T07:27:02;100933.81;;;14.48;100.00
74065;BME280;62421;51.412;5.432;2023-09-19T07:29:28;100937.09;;;14.51;100.00
74065;BME280;62421;51.412;5.432;2023-09-19T07:31:53;100937.72;;;14.55;100.00
74065;BME280;62421;51.412;5.432;2023-09-19T07:34:19;100936.84;;;14.54;100.00
74065;BME280;62421;51.412;5.432;2023-09-19T07:36:46;100941.66;;;14.51;100.00
74065;BME280;62421;51.412;5.432;2023-09-19T07:39:12;100930.84;;;14.51;100.00
74065;BME280;62421;51.412;5.432;2023-09-19T07:41:37;100931.84;;;14.50;100.00
74065;BME280;62421;51.412;5.432;2023-09-19T07:44:03;100930.00;;;14.50;100.00
74065;BME280;62421;51.412;5.432;2023-09-19T07:46:28;100930.00;;;14.50;100.00
74065;BME280;62421;51.412;5.432;2023-09-19T07:48:56;100937.09;;;14.51;100.00
74065;BME280;62421;51.412;5.432;2023-09-19T07:51:22;100936.84;;;14.54;100.00
74065;BME280;62421;51.412;5.432;2023-09-19T07:53:47;100936.00;;;14.54;100.00
74065;BME280;62421;51.412;5.432;2023-09-19T07:56:13;100945.56;;;14.58;100.00
74065;BME280;62421;51.412;5.432;2023-09-19T07:58:39;100941.50;;;14.64;100.00
74065;BME280;62421;51.412;5.432;2023-09-19T08:01:07;100937.41;;;14.69;100.00
74065;BME280;62421;51.412;5.432;2023-09-19T08:03:33;100942.47;;;14.84;100.00
74065;BME280;62421;51.412;5.432;2023-09-19T08:06:00;100937.00;;;14.95;100.00
74065;BME280;62421;51.412;5.432;2023-09-19T08:08:26;100945.88;;;15.07;100.00
74065;BME280;62421;51.412;5.432;2023-09-19T08:10:55;100935.97;;;15.17;100.00
74065;BME280;62421;51.412;5.432;2023-09-19T08:13:22;100938.28;;;15.22;100.00
74065;BME280;62421;51.412;5.432;2023-09-19T08:15:48;100942.84;;;15.21;100.00
74065;BME280;62421;51.412;5.432;2023-09-19T08:18:14;100946.09;;;15.25;100.00
74065;BME280;62421;51.412;5.432;2023-09-19T08:20:40;100952.22;;;15.27;100.00
74065;BME280;62421;51.412;5.432;2023-09-19T08:23:07;100947.53;;;15.29;100.00
74065;BME280;62421;51.412;5.432;2023-09-19T08:25:33;100940.16;;;15.31;100.00
74065;BME280;62421;51.412;5.432;2023-09-19T08:27:59;100941.88;;;15.32;100.00
74065;BME280;62421;51.412;5.432;2023-09-19T08:30:27;100929.06;;;15.34;100.00
74065;BME280;62421;51.412;5.432;2023-09-19T08:33:02;100944.03;;;15.38;100.00
74065;BME280;62421;51.412;5.432;2023-09-19T08:35:30;100944.91;;;15.48;100.00
74065;BME280;62421;51.412;5.432;2023-09-19T08:37:55;100944.78;;;15.50;100.00
74065;BME280;62421;51.412;5.432;2023-09-19T08:40:21;100940.94;;;15.52;100.00
74065;BME280;62421;51.412;5.432;2023-09-19T08:42:56;100950.09;;;15.61;100.00
74065;BME280;62421;51.412;5.432;2023-09-19T08:45:23;100953.94;;;15.59;100.00
74065;BME280;62421;51.412;5.432;2023-09-19T08:50:30;100945.13;;;15.66;100.00
74065;BME280;62421;51.412;5.432;2023-09-19T08:53:00;100946.25;;;15.64;100.00
74065;BME280;62421;51.412;5.432;2023-09-19T08:55:29;100935.41;;;15.64;100.00
74065;BME280;62421;51.412;5.432;2023-09-19T08:58:00;100946.91;;;15.77;100.00
74065;BME280;62421;51.412;5.432;2023-09-19T09:00:28;100944.63;;;15.82;100.00
74065;BME280;62421;51.412;5.432;2023-09-19T09:02:55;100935.66;;;15.82;100.00
74065;BME280;62421;51.412;5.432;2023-09-19T09:05:22;100940.06;;;15.83;100.00
74065;BME280;62421;51.412;5.432;2023-09-19T09:07:52;100939.22;;;15.82;100.00
74065;BME280;62421;51.412;5.432;2023-09-19T09:10:18;100935.78;;;15.80;100.00
74065;BME280;62421;51.412;5.432;2023-09-19T09:12:51;100933.06;;;15.80;100.00
74065;BME280;62421;51.412;5.432;2023-09-19T09:15:18;100931.22;;;15.81;100.00
74065;BME280;62421;51.412;5.432;2023-09-19T09:17:50;100931.81;;;15.84;100.00
74065;BME280;62421;51.412;5.432;2023-09-19T09:20:19;100940.34;;;15.89;100.00
74065;BME280;62421;51.412;5.432;2023-09-19T09:22:52;100928.69;;;15.99;100.00
74065;BME280;62421;51.412;5.432;2023-09-19T09:25:19;100930.69;;;16.06;100.00
74065;BME280;62421;51.412;5.432;2023-09-19T09:27:58;100940.97;;;16.12;100.00
74065;BME280;62421;51.412;5.432;2023-09-19T09:30:35;100929.56;;;16.18;100.00
74065;BME280;62421;51.412;5.432;2023-09-19T09:33:10;100932.69;;;16.24;100.00
74065;BME280;62421;51.412;5.432;2023-09-19T09:36:08;100940.44;;;16.28;100.00
74065;BME280;62421;51.412;5.432;2023-09-19T09:38:47;100940.41;;;16.38;100.00
74065;BME280;62421;51.412;5.432;2023-09-19T09:41:19;100939.81;;;16.54;100.00
74065;BME280;62421;51.412;5.432;2023-09-19T09:44:16;100934.53;;;16.72;100.00
74065;BME280;62421;51.412;5.432;2023-09-19T09:46:43;100931.69;;;16.83;100.00
74065;BME280;62421;51.412;5.432;2023-09-19T09:49:22;100941.38;;;16.95;100.00
74065;BME280;62421;51.412;5.432;2023-09-19T09:52:03;100916.78;;;16.97;100.00
74065;BME280;62421;51.412;5.432;2023-09-19T09:54:33;100922.22;;;16.97;100.00
74065;BME280;62421;51.412;5.432;2023-09-19T09:57:06;100924.34;;;17.03;100.00
74065;BME280;62421;51.412;5.432;2023-09-19T09:59:56;100917.88;;;17.14;100.00
74065;BME280;62421;51.412;5.432;2023-09-19T10:02:37;100928.72;;;17.24;100.00
74065;BME280;62421;51.412;5.432;2023-09-19T10:05:18;100922.97;;;17.27;100.00
74065;BME280;62421;51.412;5.432;2023-09-19T10:07:54;100916.69;;;17.26;100.00
74065;BME280;62421;51.412;5.432;2023-09-19T10:10:40;100911.13;;;17.28;100.00
74065;BME280;62421;51.412;5.432;2023-09-19T10:13:10;100907.00;;;17.24;100.00
74065;BME280;62421;51.412;5.432;2023-09-19T10:15:42;100924.91;;;17.16;100.00
74065;BME280;62421;51.412;5.432;2023-09-19T10:18:26;100910.63;;;17.14;100.00
74065;BME280;62421;51.412;5.432;2023-09-19T10:20:53;100911.31;;;17.16;100.00
74065;BME280;62421;51.412;5.432;2023-09-19T10:23:21;100911.31;;;17.16;100.00
74065;BME280;62421;51.412;5.432;2023-09-19T10:25:51;100903.19;;;17.16;100.00
74065;BME280;62421;51.412;5.432;2023-09-19T10:28:18;100906.56;;;17.18;100.00
74065;BME280;62421;51.412;5.432;2023-09-19T10:30:56;100894.44;;;17.23;100.00
74065;BME280;62421;51.412;5.432;2023-09-19T10:33:24;100900.09;;;17.29;100.00
74065;BME280;62421;51.412;5.432;2023-09-19T10:35:57;100906.66;;;17.36;100.00
74065;BME280;62421;51.412;5.432;2023-09-19T10:38:26;100904.91;;;17.45;100.00
74065;BME280;62421;51.412;5.432;2023-09-19T10:40:55;100918.16;;;17.48;100.00
74065;BME280;62421;51.412;5.432;2023-09-19T10:43:28;100919.56;;;17.52;100.00
74065;BME280;62421;51.412;5.432;2023-09-19T10:45:59;100909.19;;;17.66;100.00
74065;BME280;62421;51.412;5.432;2023-09-19T10:48:25;100909.53;;;17.80;99.91
74065;BME280;62421;51.412;5.432;2023-09-19T10:50:57;100907.03;;;17.97;100.00
74065;BME280;62421;51.412;5.432;2023-09-19T10:53:32;100903.25;;;18.08;100.00
74065;BME280;62421;51.412;5.432;2023-09-19T10:56:05;100904.94;;;18.27;100.00
74065;BME280;62421;51.412;5.432;2023-09-19T10:58:35;100903.38;;;18.42;95.39
74065;BME280;62421;51.412;5.432;2023-09-19T11:01:04;100898.94;;;18.59;94.32
74065;BME280;62421;51.412;5.432;2023-09-19T11:03:38;100910.78;;;18.76;93.66
74065;BME280;62421;51.412;5.432;2023-09-19T11:06:14;100892.84;;;18.83;93.28
74065;BME280;62421;51.412;5.432;2023-09-19T11:09:01;100897.09;;;18.86;91.75
74065;BME280;62421;51.412;5.432;2023-09-19T11:11:51;100883.50;;;18.86;91.18
74065;BME280;62421;51.412;5.432;2023-09-19T11:30:35;100864.69;;;18.74;86.79
74065;BME280;62421;51.412;5.432;2023-09-19T11:33:29;100852.78;;;18.75;91.17
74065;BME280;62421;51.412;5.432;2023-09-19T11:46:26;100842.44;;;19.05;87.19
74065;BME280;62421;51.412;5.432;2023-09-19T11:48:52;100853.38;;;19.13;87.63
74065;BME280;62421;51.412;5.432;2023-09-19T11:51:22;100842.03;;;19.26;87.79
74065;BME280;62421;51.412;5.432;2023-09-19T11:53:56;100830.72;;;19.47;89.78
74065;BME280;62421;51.412;5.432;2023-09-19T11:56:24;100831.09;;;19.69;86.45
74065;BME280;62421;51.412;5.432;2023-09-19T11:58:53;100825.88;;;19.83;83.98
74065;BME280;62421;51.412;5.432;2023-09-19T12:01:25;100815.66;;;19.94;84.14
74065;BME280;62421;51.412;5.432;2023-09-19T12:03:55;100823.16;;;20.00;84.93
74065;BME280;62421;51.412;5.432;2023-09-19T12:06:24;100817.69;;;20.00;83.67
74065;BME280;62421;51.412;5.432;2023-09-19T12:08:49;100818.19;;;19.87;82.41
74065;BME280;62421;51.412;5.432;2023-09-19T12:11:19;100816.16;;;19.73;82.89
74065;BME280;62421;51.412;5.432;2023-09-19T12:13:46;100814.91;;;19.67;83.62
74065;BME280;62421;51.412;5.432;2023-09-19T12:16:14;100815.47;;;19.71;85.96
74065;BME280;62421;51.412;5.432;2023-09-19T12:18:40;100822.63;;;19.72;82.73
74065;BME280;62421;51.412;5.432;2023-09-19T12:21:06;100820.38;;;19.67;84.97
74065;BME280;62421;51.412;5.432;2023-09-19T12:23:37;100817.84;;;19.74;87.16
74065;BME280;62421;51.412;5.432;2023-09-19T12:26:06;100807.50;;;19.86;86.53
74065;BME280;62421;51.412;5.432;2023-09-19T12:28:41;100805.97;;;19.99;86.74
74065;BME280;62421;51.412;5.432;2023-09-19T12:31:07;100824.53;;;20.12;83.95
74065;BME280;62421;51.412;5.432;2023-09-19T12:33:33;100822.28;;;20.24;82.11
74065;BME280;62421;51.412;5.432;2023-09-19T12:36:00;100820.44;;;20.24;82.92
74065;BME280;62421;51.412;5.432;2023-09-19T12:38:28;100824.84;;;20.25;83.29
74065;BME280;62421;51.412;5.432;2023-09-19T12:40:57;100830.66;;;20.31;83.18
74065;BME280;62421;51.412;5.432;2023-09-19T12:43:25;100826.22;;;20.21;84.51
74065;BME280;62421;51.412;5.432;2023-09-19T12:45:52;100827.09;;;20.05;81.62
74065;BME280;62421;51.412;5.432;2023-09-19T12:48:25;100838.16;;;20.04;86.92
74065;BME280;62421;51.412;5.432;2023-09-19T12:51:12;100832.03;;;20.10;85.55
74065;BME280;62421;51.412;5.432;2023-09-19T12:53:44;100830.13;;;20.11;83.64
74065;BME280;62421;51.412;5.432;2023-09-19T12:56:16;100803.91;;;20.10;85.62
74065;BME280;62421;51.412;5.432;2023-09-19T12:58:49;100815.81;;;20.09;84.24
74065;BME280;62421;51.412;5.432;2023-09-19T13:01:15;100813.09;;;20.09;82.11
74065;BME280;62421;51.412;5.432;2023-09-19T13:03:41;100816.69;;;20.09;83.00
74065;BME280;62421;51.412;5.432;2023-09-19T13:06:07;100808.00;;;20.14;85.20
74065;BME280;62421;51.412;5.432;2023-09-19T13:08:37;100817.56;;;20.18;84.21
74065;BME280;62421;51.412;5.432;2023-09-19T13:11:11;100822.97;;;20.26;82.03
74065;BME280;62421;51.412;5.432;2023-09-19T13:13:41;100804.94;;;20.25;80.45
74065;BME280;62421;51.412;5.432;2023-09-19T13:16:07;100827.09;;;20.14;82.60
74065;BME280;62421;51.412;5.432;2023-09-19T13:18:45;100818.22;;;20.03;83.88
74065;BME280;62421;51.412;5.432;2023-09-19T13:21:13;100832.19;;;20.00;82.47
74065;BME280;62421;51.412;5.432;2023-09-19T13:23:51;100823.50;;;20.05;82.17
74065;BME280;62421;51.412;5.432;2023-09-19T13:26:17;100835.41;;;20.04;83.16
74065;BME280;62421;51.412;5.432;2023-09-19T13:28:43;100832.69;;;20.04;82.14
74065;BME280;62421;51.412;5.432;2023-09-19T13:31:09;100827.75;;;19.99;82.49
74065;BME280;62421;51.412;5.432;2023-09-19T13:33:42;100832.53;;;19.97;84.40